createdAt,value
2017-12-30T00:01:26.230Z,95250.09
2017-12-30T00:03:53.810Z,95250.50
2017-12-30T00:06:21.870Z,95255.72
2017-12-30T00:08:49.457Z,95254.41
2017-12-30T00:11:17.037Z,95240.17
2017-12-30T00:13:44.657Z,95249.33
2017-12-30T00:16:12.210Z,95261.42
2017-12-30T00:18:39.805Z,95253.42
2017-12-30T00:21:07.510Z,95263.52
2017-12-30T00:23:35.068Z,95275.68
2017-12-30T00:26:02.669Z,95279.14
2017-12-30T00:28:30.303Z,95278.44
2017-12-30T00:30:57.859Z,95271.77
2017-12-30T00:33:25.459Z,95283.84
2017-12-30T00:35:53.103Z,95285.48
2017-12-30T00:38:20.648Z,95287.38
2017-12-30T00:40:48.197Z,95297.20
2017-12-30T00:43:15.845Z,95308.03
2017-12-30T00:45:43.413Z,95311.31
2017-12-30T00:48:11.006Z,95308.89
2017-12-30T00:50:38.672Z,95303.80
2017-12-30T00:53:06.587Z,95311.16
2017-12-30T00:55:34.159Z,95314.91
2017-12-30T00:58:01.787Z,95319.08
2017-12-30T01:00:29.386Z,95321.26
2017-12-30T01:02:56.945Z,95326.75
2017-12-30T01:05:24.546Z,95319.27
2017-12-30T01:07:52.110Z,95322.89
2017-12-30T01:10:19.688Z,95327.64
2017-12-30T01:12:47.257Z,95321.10
2017-12-30T01:15:14.810Z,95326.05
2017-12-30T01:17:42.374Z,95337.54
2017-12-30T01:20:09.986Z,95331.51
2017-12-30T01:22:37.647Z,95334.00
2017-12-30T01:25:05.446Z,95327.87
2017-12-30T01:27:33.005Z,95330.95
2017-12-30T01:30:00.581Z,95330.02
2017-12-30T01:32:28.124Z,95329.13
2017-12-30T01:34:55.719Z,95330.16
2017-12-30T01:37:23.277Z,95334.31
2017-12-30T01:39:50.849Z,95343.58
2017-12-30T01:42:18.450Z,95346.08
2017-12-30T01:44:46.036Z,95336.13
2017-12-30T01:47:13.597Z,95321.72
2017-12-30T01:49:41.196Z,95335.78
2017-12-30T01:52:08.753Z,95319.51
2017-12-30T01:54:36.294Z,95347.41
2017-12-30T01:57:03.910Z,95327.84
2017-12-30T01:59:31.487Z,95340.88
2017-12-30T02:01:59.083Z,95327.77
2017-12-30T02:04:26.665Z,95356.70
2017-12-30T02:06:54.201Z,95345.39
2017-12-30T02:09:21.817Z,95342.55
2017-12-30T02:11:49.395Z,95345.98
2017-12-30T02:14:17.010Z,95349.61
2017-12-30T02:16:44.598Z,95349.98
2017-12-30T02:19:12.304Z,95349.51
2017-12-30T02:21:39.929Z,95345.48
2017-12-30T02:24:07.543Z,95347.38
2017-12-30T02:26:35.070Z,95348.41
2017-12-30T02:29:02.634Z,95346.80
2017-12-30T02:31:30.250Z,95352.48
2017-12-30T02:33:57.789Z,95345.63
2017-12-30T02:36:25.327Z,95345.58
2017-12-30T02:38:52.937Z,95347.71
2017-12-30T02:41:20.643Z,95347.45
2017-12-30T02:43:48.184Z,95338.73
2017-12-30T02:46:16.665Z,95342.09
2017-12-30T02:48:44.224Z,95336.66
2017-12-30T02:51:11.794Z,95342.22
2017-12-30T02:53:39.397Z,95333.30
2017-12-30T02:56:07.492Z,95333.23
2017-12-30T02:58:35.493Z,95334.55
2017-12-30T03:01:03.477Z,95338.30
2017-12-30T03:03:31.969Z,95332.69
2017-12-30T03:05:59.528Z,95334.13
2017-12-30T03:08:27.178Z,95332.39
2017-12-30T03:10:54.768Z,95328.75
2017-12-30T03:13:22.370Z,95326.53
2017-12-30T03:15:49.957Z,95331.54
2017-12-30T03:18:17.580Z,95331.39
2017-12-30T03:20:45.180Z,95324.22
2017-12-30T03:23:12.928Z,95330.99
2017-12-30T03:25:40.580Z,95327.13
2017-12-30T03:28:08.140Z,95324.20
2017-12-30T03:30:35.707Z,95329.70
2017-12-30T03:33:03.372Z,95319.97
2017-12-30T03:35:30.935Z,95327.41
2017-12-30T03:37:58.499Z,95324.66
2017-12-30T03:40:26.135Z,95324.32
2017-12-30T03:42:53.684Z,95317.29
2017-12-30T03:45:21.220Z,95321.70
2017-12-30T03:47:48.822Z,95322.26
2017-12-30T03:50:16.413Z,95319.06
2017-12-30T03:52:43.978Z,95312.98
2017-12-30T03:55:11.771Z,95314.17
2017-12-30T03:57:39.370Z,95311.38
2017-12-30T04:00:06.961Z,95323.00
2017-12-30T04:02:34.552Z,95317.88
2017-12-30T04:05:02.117Z,95325.69
2017-12-30T04:07:29.884Z,95331.94
2017-12-30T04:09:57.500Z,95332.27
2017-12-30T04:12:25.078Z,95333.02
2017-12-30T04:14:52.652Z,95338.31
2017-12-30T04:17:20.274Z,95339.47
2017-12-30T04:19:47.851Z,95340.17
2017-12-30T04:22:15.522Z,95328.50
2017-12-30T04:24:43.128Z,95337.53
2017-12-30T04:27:10.842Z,95334.05
2017-12-30T04:29:38.400Z,95332.17
2017-12-30T04:32:06.040Z,95333.55
2017-12-30T04:34:33.634Z,95343.41
2017-12-30T04:37:01.211Z,95349.05
2017-12-30T04:42:00.586Z,95345.14
2017-12-30T04:44:28.159Z,95346.09
2017-12-30T04:46:55.798Z,95341.05
2017-12-30T04:49:23.758Z,95354.48
2017-12-30T04:51:51.356Z,95356.64
2017-12-30T04:54:18.989Z,95356.81
2017-12-30T04:56:46.552Z,95355.08
2017-12-30T04:59:14.106Z,95363.80
2017-12-30T05:01:41.733Z,95362.89
2017-12-30T05:04:09.296Z,95366.59
2017-12-30T05:06:36.851Z,95369.97
2017-12-30T05:09:04.900Z,95373.29
2017-12-30T05:11:32.472Z,95376.58
2017-12-30T05:14:00.029Z,95386.53
2017-12-30T05:16:27.598Z,95382.27
2017-12-30T05:18:55.142Z,95385.55
2017-12-30T05:21:22.721Z,95376.98
2017-12-30T05:23:50.357Z,95374.76
2017-12-30T05:26:17.917Z,95380.61
2017-12-30T05:28:45.468Z,95383.86
2017-12-30T05:31:13.059Z,95386.69
2017-12-30T05:33:40.641Z,95388.02
2017-12-30T05:36:08.319Z,95404.97
2017-12-30T05:38:35.917Z,95402.89
2017-12-30T05:41:03.499Z,95415.27
2017-12-30T05:43:31.504Z,95409.20
2017-12-30T05:45:59.206Z,95415.09
2017-12-30T05:48:32.662Z,95415.53
2017-12-30T05:51:00.289Z,95413.63
2017-12-30T05:53:27.850Z,95405.66
2017-12-30T05:55:55.411Z,95408.86
2017-12-30T05:58:22.992Z,95407.86
2017-12-30T06:00:50.568Z,95412.75
2017-12-30T06:03:18.153Z,95407.35
2017-12-30T06:05:45.745Z,95420.70
2017-12-30T06:08:13.348Z,95418.41
2017-12-30T06:10:40.921Z,95423.25
2017-12-30T06:13:08.819Z,95431.47
2017-12-30T06:15:36.420Z,95430.30
2017-12-30T06:18:04.069Z,95435.46
2017-12-30T06:20:31.683Z,95432.68
2017-12-30T06:22:59.264Z,95428.66
2017-12-30T06:25:26.970Z,95434.70
2017-12-30T06:27:54.561Z,95441.56
2017-12-30T06:30:22.127Z,95440.80
2017-12-30T06:32:49.700Z,95445.31
2017-12-30T06:35:17.293Z,95453.63
2017-12-30T06:37:44.862Z,95457.28
2017-12-30T06:40:12.530Z,95461.75
2017-12-30T06:45:31.015Z,95468.19
2017-12-30T06:47:58.620Z,95469.99
2017-12-30T06:50:26.193Z,95464.93
2017-12-30T06:52:53.771Z,95452.69
2017-12-30T06:55:21.513Z,95473.78
2017-12-30T07:00:39.760Z,95461.50
2017-12-30T07:03:09.786Z,95466.27
2017-12-30T07:05:37.349Z,95475.08
2017-12-30T07:10:55.677Z,95469.58
2017-12-30T07:13:29.237Z,95470.91
2017-12-30T07:15:56.954Z,95468.05
2017-12-30T07:18:24.612Z,95476.69
2017-12-30T07:20:52.913Z,95473.67
2017-12-30T07:23:20.492Z,95473.47
2017-12-30T07:25:48.051Z,95472.26
2017-12-30T07:28:15.592Z,95473.35
2017-12-30T07:30:43.213Z,95474.56
2017-12-30T07:33:12.991Z,95472.94
2017-12-30T07:35:40.839Z,95479.55
2017-12-30T07:38:08.399Z,95474.14
2017-12-30T07:40:35.971Z,95477.43
2017-12-30T07:43:05.011Z,95483.24
2017-12-30T07:45:32.749Z,95495.67
2017-12-30T07:48:01.312Z,95504.42
2017-12-30T07:50:28.887Z,95495.56
2017-12-30T07:52:56.457Z,95491.02
2017-12-30T07:55:24.029Z,95503.11
2017-12-30T07:57:51.597Z,95506.05
2017-12-30T08:00:19.155Z,95507.40
2017-12-30T08:02:46.730Z,95512.52
2017-12-30T08:05:14.296Z,95508.55
2017-12-30T08:07:41.870Z,95506.09
2017-12-30T08:10:09.484Z,95509.77
2017-12-30T08:12:37.044Z,95499.13
2017-12-30T08:15:04.631Z,95515.42
2017-12-30T08:17:32.271Z,95506.50
2017-12-30T08:19:59.846Z,95508.38
2017-12-30T08:22:27.691Z,95506.58
2017-12-30T08:24:55.351Z,95515.41
2017-12-30T08:27:22.886Z,95515.11
2017-12-30T08:29:50.451Z,95519.83
2017-12-30T08:32:18.074Z,95512.66
2017-12-30T08:34:45.613Z,95513.19
2017-12-30T08:37:13.160Z,95506.18
2017-12-30T08:39:40.773Z,95496.83
2017-12-30T08:42:08.510Z,95497.16
2017-12-30T08:44:36.146Z,95502.29
2017-12-30T08:47:03.747Z,95509.31
2017-12-30T08:49:31.879Z,95501.84
2017-12-30T08:51:59.740Z,95513.07
2017-12-30T08:54:27.325Z,95516.23
2017-12-30T08:56:54.920Z,95515.64
2017-12-30T08:59:22.520Z,95507.40
2017-12-30T09:01:50.079Z,95510.25
2017-12-30T09:04:17.640Z,95511.29
2017-12-30T09:06:45.256Z,95513.83
2017-12-30T09:09:12.799Z,95509.27
2017-12-30T09:11:40.358Z,95517.96
2017-12-30T09:14:07.962Z,95502.16
2017-12-30T09:16:35.563Z,95503.17
2017-12-30T09:19:03.137Z,95501.58
2017-12-30T09:21:30.684Z,95503.40
2017-12-30T09:23:58.253Z,95505.45
2017-12-30T09:26:25.800Z,95502.59
2017-12-30T09:28:53.361Z,95509.20
2017-12-30T09:31:20.961Z,95497.35
2017-12-30T09:33:48.520Z,95495.26
2017-12-30T09:36:16.037Z,95486.17
2017-12-30T09:38:43.611Z,95475.98
2017-12-30T09:41:11.165Z,95475.05
2017-12-30T09:43:38.719Z,95471.66
2017-12-30T09:46:06.266Z,95471.25
2017-12-30T09:48:33.863Z,95467.59
2017-12-30T09:51:01.463Z,95474.20
2017-12-30T09:53:29.027Z,95476.21
2017-12-30T09:55:56.611Z,95470.27
2017-12-30T09:58:24.160Z,95462.66
2017-12-30T10:00:51.706Z,95467.16
2017-12-30T10:03:19.266Z,95469.08
2017-12-30T10:05:46.824Z,95467.14
2017-12-30T10:08:14.396Z,95453.48
2017-12-30T10:10:41.927Z,95456.59
2017-12-30T10:13:09.559Z,95461.06
2017-12-30T10:15:37.130Z,95464.81
2017-12-30T10:18:05.080Z,95471.66
2017-12-30T10:20:32.671Z,95479.81
2017-12-30T10:23:00.241Z,95474.95
2017-12-30T10:25:27.790Z,95464.66
2017-12-30T10:27:55.340Z,95449.02
2017-12-30T10:30:23.004Z,95447.88
2017-12-30T10:32:50.570Z,95446.57
2017-12-30T10:35:18.187Z,95448.70
2017-12-30T10:37:45.741Z,95439.52
2017-12-30T10:40:13.299Z,95428.78
2017-12-30T10:42:40.873Z,95423.80
2017-12-30T10:45:08.431Z,95420.33
2017-12-30T10:47:36.072Z,95421.64
2017-12-30T10:50:03.640Z,95419.20
2017-12-30T10:52:31.181Z,95422.48
2017-12-30T10:54:58.769Z,95420.84
2017-12-30T10:57:26.363Z,95412.08
2017-12-30T10:59:54.044Z,95405.54
2017-12-30T11:02:21.589Z,95403.24
2017-12-30T11:04:49.294Z,95404.71
2017-12-30T11:07:16.855Z,95398.95
2017-12-30T11:09:44.413Z,95397.11
2017-12-30T11:12:11.970Z,95393.84
2017-12-30T11:14:40.769Z,95387.52
2017-12-30T11:17:08.315Z,95386.44
2017-12-30T11:19:35.867Z,95381.41
2017-12-30T11:22:03.466Z,95372.34
2017-12-30T11:24:31.023Z,95370.88
2017-12-30T11:26:59.322Z,95369.06
2017-12-30T11:29:26.866Z,95370.46
2017-12-30T11:31:54.417Z,95358.74
2017-12-30T11:34:21.975Z,95356.44
2017-12-30T11:36:49.558Z,95351.55
2017-12-30T11:39:17.141Z,95355.91
2017-12-30T11:41:44.764Z,95356.98
2017-12-30T11:44:12.362Z,95349.62
2017-12-30T11:46:40.040Z,95344.22
2017-12-30T11:49:07.694Z,95333.46
2017-12-30T11:51:35.378Z,95328.77
2017-12-30T11:54:05.195Z,95330.48
2017-12-30T11:56:32.926Z,95333.28
2017-12-30T11:59:00.457Z,95344.81
2017-12-30T12:01:28.009Z,95352.47
2017-12-30T12:03:55.613Z,95338.83
2017-12-30T12:06:24.005Z,95324.98
2017-12-30T12:08:51.560Z,95322.51
2017-12-30T12:11:19.162Z,95327.80
2017-12-30T12:13:46.717Z,95324.00
2017-12-30T12:16:14.254Z,95328.31
2017-12-30T12:18:41.852Z,95326.48
2017-12-30T12:21:09.582Z,95329.02
2017-12-30T12:23:37.174Z,95322.91
2017-12-30T12:26:04.757Z,95311.11
2017-12-30T12:28:32.321Z,95316.22
2017-12-30T12:30:59.864Z,95321.48
2017-12-30T12:33:27.443Z,95313.01
2017-12-30T12:35:55.018Z,95296.78
2017-12-30T12:38:22.581Z,95300.52
2017-12-30T12:40:50.145Z,95308.88
2017-12-30T12:43:17.707Z,95309.08
2017-12-30T12:45:45.259Z,95296.72
2017-12-30T12:48:12.843Z,95288.61
2017-12-30T12:50:40.428Z,95285.56
2017-12-30T12:53:08.151Z,95281.02
2017-12-30T12:55:35.846Z,95281.30
2017-12-30T12:58:03.409Z,95278.09
2017-12-30T13:00:31.025Z,95273.98
2017-12-30T13:02:58.586Z,95263.83
2017-12-30T13:05:26.141Z,95256.77
2017-12-30T13:07:53.746Z,95253.72
2017-12-30T13:10:21.321Z,95258.30
2017-12-30T13:12:48.923Z,95270.62
2017-12-30T13:15:16.509Z,95269.23
2017-12-30T13:17:44.064Z,95276.36
2017-12-30T13:20:11.759Z,95273.61
2017-12-30T13:22:39.305Z,95274.48
2017-12-30T13:25:06.842Z,95265.09
2017-12-30T13:27:34.381Z,95272.41
2017-12-30T13:30:02.011Z,95270.25
2017-12-30T13:32:29.621Z,95259.75
2017-12-30T13:34:57.192Z,95256.59
2017-12-30T13:37:24.729Z,95264.45
2017-12-30T13:39:52.293Z,95263.70
2017-12-30T13:42:19.971Z,95275.75
2017-12-30T13:44:47.518Z,95276.15
2017-12-30T13:47:15.328Z,95275.37
2017-12-30T13:49:42.889Z,95273.94
2017-12-30T13:52:10.460Z,95277.76
2017-12-30T13:54:38.037Z,95280.14
2017-12-30T13:57:05.597Z,95285.77
2017-12-30T13:59:33.138Z,95290.58
2017-12-30T14:02:00.701Z,95287.12
2017-12-30T14:04:28.259Z,95266.45
2017-12-30T14:06:55.801Z,95269.42
2017-12-30T14:09:23.478Z,95266.95
2017-12-30T14:11:51.012Z,95278.09
2017-12-30T14:14:18.821Z,95271.95
2017-12-30T14:16:46.382Z,95248.81
2017-12-30T14:19:13.939Z,95217.56
2017-12-30T14:21:41.551Z,95236.23
2017-12-30T14:24:09.102Z,95249.23
2017-12-30T14:26:36.681Z,95249.95
2017-12-30T14:29:04.272Z,95249.84
2017-12-30T14:31:33.425Z,95227.30
2017-12-30T14:34:00.980Z,95219.76
2017-12-30T14:36:28.538Z,95223.66
2017-12-30T14:38:56.130Z,95235.02
2017-12-30T14:41:23.667Z,95237.97
2017-12-30T14:43:51.192Z,95235.30
2017-12-30T14:46:18.787Z,95238.16
2017-12-30T14:48:46.356Z,95215.41
2017-12-30T14:51:13.920Z,95218.91
2017-12-30T14:56:32.276Z,95228.20
2017-12-30T14:58:59.880Z,95226.21
2017-12-30T15:01:27.424Z,95223.91
2017-12-30T15:03:55.024Z,95229.46
2017-12-30T15:06:22.657Z,95235.86
2017-12-30T15:08:50.206Z,95245.37
2017-12-30T15:11:17.754Z,95248.68
2017-12-30T15:13:45.335Z,95252.77
2017-12-30T15:16:12.883Z,95235.39
2017-12-30T15:18:40.499Z,95236.48
2017-12-30T15:21:08.225Z,95255.63
2017-12-30T15:23:35.788Z,95265.94
2017-12-30T15:26:04.718Z,95254.44
2017-12-30T15:28:32.269Z,95257.22
2017-12-30T15:31:00.928Z,95246.16
2017-12-30T15:33:28.574Z,95252.03
2017-12-30T15:35:57.720Z,95242.81
2017-12-30T15:38:25.295Z,95255.13
2017-12-30T15:40:52.905Z,95267.42
2017-12-30T15:43:20.445Z,95276.77
2017-12-30T15:45:47.988Z,95269.32
2017-12-30T15:48:15.602Z,95285.56
2017-12-30T15:50:43.145Z,95291.78
2017-12-30T15:53:10.711Z,95297.09
2017-12-30T15:55:38.348Z,95288.81
2017-12-30T15:58:05.883Z,95309.48
2017-12-30T16:00:33.459Z,95305.20
2017-12-30T16:03:01.064Z,95295.48
2017-12-30T16:05:28.611Z,95298.48
2017-12-30T16:07:56.204Z,95282.49
2017-12-30T16:10:23.785Z,95271.02
2017-12-30T16:12:51.329Z,95294.65
2017-12-30T16:15:18.897Z,95295.12
2017-12-30T16:17:46.492Z,95299.10
2017-12-30T16:20:14.156Z,95316.98
2017-12-30T16:22:41.751Z,95319.53
2017-12-30T16:25:09.647Z,95315.52
2017-12-30T16:27:37.211Z,95317.22
2017-12-30T16:30:04.749Z,95314.47
2017-12-30T16:32:32.360Z,95315.71
2017-12-30T16:34:59.951Z,95320.99
2017-12-30T16:37:27.522Z,95324.02
2017-12-30T16:39:56.692Z,95335.00
2017-12-30T16:42:24.326Z,95330.52
2017-12-30T16:44:51.920Z,95336.90
2017-12-30T16:47:19.482Z,95346.77
2017-12-30T16:49:47.054Z,95341.89
2017-12-30T16:52:14.625Z,95340.06
2017-12-30T16:54:42.176Z,95338.33
2017-12-30T16:57:10.003Z,95339.52
2017-12-30T16:59:37.700Z,95335.44
2017-12-30T17:02:05.232Z,95348.98
2017-12-30T17:04:32.782Z,95347.84
2017-12-30T17:07:00.561Z,95345.83
2017-12-30T17:09:28.109Z,95359.72
2017-12-30T17:11:55.654Z,95350.70
2017-12-30T17:14:23.328Z,95337.91
2017-12-30T17:16:50.881Z,95326.92
2017-12-30T17:19:18.435Z,95349.48
2017-12-30T17:21:46.030Z,95342.25
2017-12-30T17:24:13.709Z,95344.56
2017-12-30T17:26:41.245Z,95355.63
2017-12-30T17:29:09.209Z,95348.45
2017-12-30T17:31:36.851Z,95345.11
2017-12-30T17:34:04.381Z,95344.31
2017-12-30T17:36:31.994Z,95354.65
2017-12-30T17:38:59.558Z,95360.81
2017-12-30T17:41:27.138Z,95360.42
2017-12-30T17:43:54.709Z,95372.46
2017-12-30T17:46:22.298Z,95374.96
2017-12-30T17:48:49.871Z,95365.98
2017-12-30T17:51:17.435Z,95364.61
2017-12-30T17:53:45.006Z,95363.76
2017-12-30T17:56:12.665Z,95362.88
2017-12-30T17:58:40.229Z,95361.70
2017-12-30T18:01:07.784Z,95364.11
2017-12-30T18:03:35.327Z,95385.48
2017-12-30T18:06:17.587Z,95387.92
2017-12-30T18:08:45.144Z,95396.23
2017-12-30T18:11:12.673Z,95400.77
2017-12-30T18:13:40.239Z,95379.56
2017-12-30T18:16:07.771Z,95357.60
2017-12-30T18:18:35.337Z,95371.50
2017-12-30T18:21:02.879Z,95367.94
2017-12-30T18:23:31.057Z,95368.71
2017-12-30T18:25:58.601Z,95368.81
2017-12-30T18:28:26.159Z,95361.73
2017-12-30T18:30:53.736Z,95354.33
2017-12-30T18:33:21.283Z,95363.05
2017-12-30T18:35:48.805Z,95366.69
2017-12-30T18:38:16.347Z,95366.27
2017-12-30T18:40:43.884Z,95366.59
2017-12-30T18:43:11.610Z,95362.45
2017-12-30T18:45:39.143Z,95365.75
2017-12-30T18:48:06.680Z,95375.23
2017-12-30T18:50:34.232Z,95369.73
2017-12-30T18:53:01.780Z,95356.14
2017-12-30T18:55:29.437Z,95351.02
2017-12-30T18:57:57.029Z,95357.77
2017-12-30T19:00:24.584Z,95359.97
2017-12-30T19:02:52.140Z,95362.69
2017-12-30T19:05:19.953Z,95362.66
2017-12-30T19:07:47.879Z,95349.44
2017-12-30T19:10:15.478Z,95353.95
2017-12-30T19:12:43.455Z,95375.52
2017-12-30T19:15:11.047Z,95372.77
2017-12-30T19:17:38.600Z,95380.03
2017-12-30T19:20:06.188Z,95374.22
2017-12-30T19:22:33.741Z,95372.23
2017-12-30T19:25:02.010Z,95365.70
2017-12-30T19:27:29.587Z,95362.54
2017-12-30T19:29:57.137Z,95378.37
2017-12-30T19:32:24.688Z,95375.59
2017-12-30T19:34:52.282Z,95380.31
2017-12-30T19:37:19.831Z,95384.33
2017-12-30T19:39:47.402Z,95387.92
2017-12-30T19:42:14.991Z,95401.05
2017-12-30T19:44:43.237Z,95410.97
2017-12-30T19:47:10.794Z,95406.64
2017-12-30T19:49:38.357Z,95413.03
2017-12-30T19:52:05.909Z,95415.94
2017-12-30T19:54:33.513Z,95414.86
2017-12-30T19:57:01.009Z,95409.55
2017-12-30T19:59:28.563Z,95402.86
2017-12-30T20:04:30.442Z,95395.78
2017-12-30T20:06:58.015Z,95399.45
2017-12-30T20:09:25.562Z,95400.12
2017-12-30T20:11:53.120Z,95401.23
2017-12-30T20:14:20.722Z,95398.08
2017-12-30T20:16:48.267Z,95402.16
2017-12-30T20:19:15.801Z,95399.75
2017-12-30T20:21:43.393Z,95404.59
2017-12-30T20:24:10.937Z,95411.97
2017-12-30T20:26:38.495Z,95410.13
2017-12-30T20:29:06.106Z,95405.99
2017-12-30T20:31:33.665Z,95414.04
2017-12-30T20:34:01.207Z,95408.01
2017-12-30T20:36:28.828Z,95412.37
2017-12-30T20:38:56.385Z,95417.25
2017-12-30T20:41:23.932Z,95413.80
2017-12-30T20:43:51.506Z,95408.67
2017-12-30T20:46:19.043Z,95410.39
2017-12-30T20:48:46.588Z,95402.92
2017-12-30T20:51:14.136Z,95400.92
2017-12-30T20:53:41.705Z,95414.28
2017-12-30T20:56:09.251Z,95426.52
2017-12-30T20:58:36.803Z,95422.53
2017-12-30T21:01:04.378Z,95421.17
2017-12-30T21:03:31.936Z,95426.92
2017-12-30T21:05:59.489Z,95400.89
2017-12-30T21:08:27.083Z,95390.70
2017-12-30T21:10:54.628Z,95391.97
2017-12-30T21:13:22.187Z,95390.48
2017-12-30T21:15:49.739Z,95393.02
2017-12-30T21:18:17.429Z,95399.50
2017-12-30T21:20:44.977Z,95407.25
2017-12-30T21:23:12.539Z,95405.83
2017-12-30T21:25:40.281Z,95404.59
2017-12-30T21:28:07.915Z,95417.97
2017-12-30T21:30:35.468Z,95408.83
2017-12-30T21:33:03.018Z,95401.56
2017-12-30T21:35:31.608Z,95400.58
2017-12-30T21:37:59.161Z,95400.48
2017-12-30T21:40:26.756Z,95403.55
2017-12-30T21:42:54.313Z,95393.39
2017-12-30T21:45:21.894Z,95397.89
2017-12-30T21:50:46.448Z,95400.52
2017-12-30T21:53:13.989Z,95390.70
2017-12-30T21:55:41.775Z,95381.59
2017-12-30T21:58:09.354Z,95374.69
2017-12-30T22:00:36.889Z,95378.88
2017-12-30T22:03:04.506Z,95398.19
2017-12-30T22:05:32.076Z,95400.39
2017-12-30T22:07:59.620Z,95394.45
2017-12-30T22:10:27.146Z,95376.36
2017-12-30T22:12:54.725Z,95372.30
2017-12-30T22:15:22.285Z,95372.63
2017-12-30T22:17:49.825Z,95371.33
2017-12-30T22:20:17.465Z,95374.87
2017-12-30T22:22:45.012Z,95382.67
2017-12-30T22:25:12.563Z,95378.60
2017-12-30T22:27:40.140Z,95373.50
2017-12-30T22:30:07.753Z,95380.05
2017-12-30T22:32:35.293Z,95389.03
2017-12-30T22:35:02.888Z,95396.30
2017-12-30T22:37:30.460Z,95389.18
2017-12-30T22:40:10.047Z,95376.59
2017-12-30T22:42:37.684Z,95384.60
2017-12-30T22:45:05.924Z,95338.53
2017-12-30T22:47:33.489Z,95359.26
2017-12-30T22:50:01.046Z,95371.31
2017-12-30T22:52:28.647Z,95365.22
2017-12-30T22:54:56.232Z,95366.10
2017-12-30T22:57:23.768Z,95370.45
2017-12-30T22:59:51.361Z,95380.41
2017-12-30T23:02:18.981Z,95382.84
2017-12-30T23:04:48.124Z,95387.40
2017-12-30T23:07:15.894Z,95384.47
2017-12-30T23:09:43.458Z,95386.81
2017-12-30T23:12:11.024Z,95382.09
2017-12-30T23:14:38.577Z,95384.51
2017-12-30T23:17:06.361Z,95389.89
2017-12-30T23:19:33.984Z,95393.66
2017-12-30T23:22:01.542Z,95390.89
2017-12-30T23:24:29.103Z,95383.94
2017-12-30T23:26:56.727Z,95383.36
2017-12-30T23:29:24.303Z,95375.66
2017-12-30T23:31:51.844Z,95376.02
2017-12-30T23:34:19.451Z,95392.92
2017-12-30T23:36:47.005Z,95397.33
2017-12-30T23:39:14.556Z,95393.97
2017-12-30T23:41:42.168Z,95389.30
2017-12-30T23:44:09.717Z,95375.82
2017-12-30T23:46:37.312Z,95373.75
2017-12-30T23:49:04.901Z,95371.87
2017-12-30T23:51:32.516Z,95377.85
2017-12-30T23:54:00.068Z,95370.12
2017-12-30T23:56:27.621Z,95378.16
2017-12-30T23:58:57.540Z,95384.36
